Bright Ocean — HOGQ — position and weather

sailwx.info

Track history (hours):
 
Tides and Currents Weather Stations Pressure Air Temp Water Temp Dewpoint Dewpoint Depression Visibility Wind Speed Wind Dir Waves Ship Positions

Bright Ocean

Last reported at 2017-Sep-16 03:04 UTC. Time now 2017-Sep-25 06:21 UTC.
Position N 48°31' W 126°43'.
Warning: this ship's position is 9 days out of date.

Length 178 m; draft 9.7 m.

Type: Cargo ship. MMSI: 373816000.

Date/timePositionNaut miles runAvg speedWind from/ knotsBaromVisibWave heightAir tempDewpointWater temp
2017-Sep-16 03:04N 48°31' W 126°43'112.7
2017-Sep-16 03:00N 48°32' W 126°42'612.1
2017-Sep-16 02:28N 48°31' W 126°32'612.2
2017-Sep-16 02:00N 48°31' W 126°23'612.6
2017-Sep-16 01:30N 48°31' W 126°14'612.3
2017-Sep-16 01:00N 48°31' W 126°04'612.4
2017-Sep-16 00:30N 48°31' W 125°55'612.0
2017-Sep-16 00:00N 48°31' W 125°46'612.4
2017-Sep-15 23:30N 48°31' W 125°37'612.2
2017-Sep-15 23:00N 48°31' W 125°27'612.1
2017-Sep-15 22:30N 48°31' W 125°18'612.0
2017-Sep-15 22:00N 48°31' W 125°09'612.6
2017-Sep-15 21:30N 48°31' W 124°60'613.1
2017-Sep-15 21:00N 48°31' W 124°50'612.5
2017-Sep-15 20:30N 48°30' W 124°41'612.6
2017-Sep-15 20:00N 48°27' W 124°32'612.2
2017-Sep-15 19:30N 48°25' W 124°23'612.2
2017-Sep-15 19:00N 48°23' W 124°15'611.8
2017-Sep-15 18:30N 48°20' W 124°06'611.8
2017-Sep-15 18:00N 48°18' W 123°58'611.6
2017-Sep-15 17:30N 48°17' W 123°50'611.9
2017-Sep-15 17:00N 48°16' W 123°41'611.4
2017-Sep-15 16:30N 48°16' W 123°32'5 9.7
2017-Sep-15 16:00N 48°19' W 123°27'5 9.9
2017-Sep-15 15:30N 48°23' W 123°22'510.3
2017-Sep-15 15:00N 48°24' W 123°15'510.4
2017-Sep-15 14:30N 48°29' W 123°12'713.3
2017-Sep-15 14:00N 48°35' W 123°14'713.3
2017-Sep-15 13:30N 48°42' W 123°15'714.8
2017-Sep-15 13:00N 48°45' W 123°05'510.1
2017-Sep-15 12:30N 48°50' W 123°03'815.1
2017-Sep-15 12:01N 48°55' W 123°11'815.0
2017-Sep-15 11:30N 49°00' W 123°19'713.6
2017-Sep-15 11:00N 49°07' W 123°24'713.7
2017-Sep-15 10:30N 49°13' W 123°23'611.8
2017-Sep-15 10:00N 49°18' W 123°19'612.5
2017-Sep-15 09:30N 49°19' W 123°09'3 6.8
2017-Sep-15 09:00N 49°18' W 123°04'1 3.0
2017-Sep-15 08:30N 49°18' W 123°02'0 0.0
2017-Sep-15 07:58N 49°18' W 123°02'0 0.0
2017-Sep-15 07:28N 49°18' W 123°02'0 0.0
2017-Sep-15 06:58N 49°18' W 123°02'0 0.0
2017-Sep-15 06:28N 49°18' W 123°02'0 0.0
2017-Sep-15 05:58N 49°18' W 123°02'0 0.0
2017-Sep-15 05:28N 49°18' W 123°02'0 0.0
2017-Sep-15 04:58N 49°18' W 123°02'0 0.0
2017-Sep-15 04:28N 49°18' W 123°02'0 0.0
2017-Sep-15 03:55N 49°18' W 123°02'0 0.0
2017-Sep-15 03:28N 49°18' W 123°02'0 0.0
2017-Sep-15 02:58N 49°18' W 123°02'0 0.0
2017-Sep-15 02:28N 49°18' W 123°02'0 0.0
2017-Sep-15 01:58N 49°18' W 123°02'0 0.0
2017-Sep-15 01:28N 49°18' W 123°02'0 0.0
2017-Sep-15 00:55N 49°18' W 123°02'0 0.0
2017-Sep-15 00:28N 49°18' W 123°02'0 0.0
2017-Sep-14 23:58N 49°18' W 123°02'0 0.0
2017-Sep-14 23:28N 49°18' W 123°02'0 0.0
2017-Sep-14 22:58N 49°18' W 123°02'0 0.0
2017-Sep-14 22:28N 49°18' W 123°02'0 0.0
2017-Sep-14 21:58N 49°18' W 123°02'0 0.0
2017-Sep-14 21:28N 49°18' W 123°02'0 0.0
2017-Sep-14 20:58N 49°18' W 123°02'0 0.0
2017-Sep-14 20:25N 49°18' W 123°02'0 0.0
2017-Sep-14 19:58N 49°18' W 123°02'0 0.0
2017-Sep-14 19:28N 49°18' W 123°02'0 0.0
2017-Sep-14 18:58N 49°18' W 123°02'0 0.0
2017-Sep-14 18:28N 49°18' W 123°02'0 0.0
2017-Sep-14 17:58N 49°18' W 123°02'0 0.0
2017-Sep-14 17:22N 49°18' W 123°02'0 0.0
2017-Sep-14 16:58N 49°18' W 123°02'0 0.0
2017-Sep-14 16:28N 49°18' W 123°02'0 0.0
2017-Sep-14 15:58N 49°18' W 123°02'0 0.0
2017-Sep-14 15:28N 49°18' W 123°02'0 0.0
2017-Sep-14 14:58N 49°18' W 123°02'0 0.0
2017-Sep-14 14:28N 49°18' W 123°02'0 0.0
2017-Sep-14 13:58N 49°18' W 123°02'0 0.7
2017-Sep-14 13:31N 49°18' W 123°02'2 4.3
2017-Sep-14 13:00N 49°18' W 123°05'4 8.4
2017-Sep-14 12:30N 49°19' W 123°12'1 2.4
2017-Sep-14 12:01N 49°20' W 123°13'0 0.0
2017-Sep-14 11:29N 49°20' W 123°13'0 0.0
2017-Sep-14 10:59N 49°20' W 123°13'0 0.0
2017-Sep-14 10:29N 49°20' W 123°13'0 0.1
2017-Sep-14 09:59N 49°20' W 123°13'0 0.1
2017-Sep-14 09:29N 49°20' W 123°13'0 0.1
2017-Sep-14 08:59N 49°20' W 123°13'0 0.0
2017-Sep-14 08:29N 49°20' W 123°13'0 0.1
2017-Sep-14 07:59N 49°20' W 123°13'0 0.0
2017-Sep-14 07:29N 49°20' W 123°13'0 0.1
2017-Sep-14 06:59N 49°20' W 123°13'0 0.0
2017-Sep-14 06:29N 49°20' W 123°13'0 0.0
2017-Sep-14 05:59N 49°20' W 123°13'0 0.0
2017-Sep-14 05:29N 49°20' W 123°13'0 0.0
2017-Sep-14 04:59N 49°20' W 123°13'0 0.0
2017-Sep-14 04:29N 49°20' W 123°13'0 0.1
2017-Sep-14 03:59N 49°20' W 123°13'0 0.1
2017-Sep-14 03:29N 49°20' W 123°13'0 0.1
2017-Sep-14 02:59N 49°20' W 123°13'0 0.1
2017-Sep-14 02:29N 49°20' W 123°13'0 0.2
2017-Sep-14 01:59N 49°20' W 123°13'0 0.1
2017-Sep-14 01:29N 49°20' W 123°13'0 0.1
2017-Sep-14 00:59N 49°20' W 123°13'0 0.0
2017-Sep-14 00:29N 49°20' W 123°13'0 0.1
2017-Sep-13 23:59N 49°20' W 123°13'0 0.1
2017-Sep-13 23:29N 49°20' W 123°13'0 0.0
2017-Sep-13 22:59N 49°20' W 123°13'0 0.1
2017-Sep-13 22:29N 49°20' W 123°13'0 0.1
2017-Sep-13 21:59N 49°20' W 123°13'0 0.0
2017-Sep-13 21:29N 49°20' W 123°13'0 0.0
2017-Sep-13 20:59N 49°20' W 123°13'0 0.0
2017-Sep-13 20:29N 49°20' W 123°13'0 0.0
2017-Sep-13 19:59N 49°20' W 123°13'0 0.1
2017-Sep-13 19:29N 49°20' W 123°13'0 0.2
2017-Sep-13 18:59N 49°20' W 123°13'0 0.2
2017-Sep-13 18:29N 49°20' W 123°13'0 0.0
2017-Sep-13 17:59N 49°20' W 123°13'0 0.1
2017-Sep-13 17:26N 49°20' W 123°13'0 0.0
2017-Sep-13 16:59N 49°20' W 123°13'0 0.0
2017-Sep-13 16:29N 49°20' W 123°13'0 0.0
2017-Sep-13 15:59N 49°20' W 123°13'0 0.0
2017-Sep-13 15:29N 49°20' W 123°13'0 0.0
2017-Sep-13 14:59N 49°20' W 123°13'0 0.0
2017-Sep-13 14:29N 49°20' W 123°13'0 0.0
2017-Sep-13 13:59N 49°20' W 123°13'0 0.0
2017-Sep-13 13:29N 49°20' W 123°13'0 0.0
2017-Sep-13 12:59N 49°20' W 123°13'0 0.0
2017-Sep-13 12:29N 49°20' W 123°13'0 0.0
2017-Sep-13 11:59N 49°20' W 123°13'0 0.1
2017-Sep-13 11:29N 49°20' W 123°13'0 0.0
2017-Sep-13 10:59N 49°20' W 123°13'0 0.0
2017-Sep-13 10:29N 49°20' W 123°13'0 0.0
2017-Sep-13 09:59N 49°20' W 123°13'0 0.0
2017-Sep-13 09:29N 49°20' W 123°13'0 0.0
2017-Sep-13 08:59N 49°20' W 123°13'0 0.2
2017-Sep-13 08:29N 49°20' W 123°13'0 0.2
2017-Sep-13 07:59N 49°20' W 123°13'0 0.1
2017-Sep-13 07:29N 49°20' W 123°13'0 0.2
2017-Sep-13 06:59N 49°20' W 123°13'0 0.1
2017-Sep-13 06:29N 49°20' W 123°13'0 0.0
2017-Sep-13 05:59N 49°20' W 123°13'0 0.1
2017-Sep-13 05:29N 49°20' W 123°13'0 0.1
2017-Sep-13 04:59N 49°20' W 123°13'0 0.0
2017-Sep-13 04:29N 49°20' W 123°13'0 0.0
2017-Sep-13 03:59N 49°20' W 123°13'0 0.1
2017-Sep-13 03:29N 49°20' W 123°13'0 0.0
2017-Sep-13 02:59N 49°20' W 123°13'0 0.0
2017-Sep-13 02:29N 49°20' W 123°13'0 0.1
2017-Sep-13 01:59N 49°20' W 123°13'0 0.0
2017-Sep-13 01:29N 49°20' W 123°13'0 0.2
2017-Sep-13 00:59N 49°20' W 123°13'0 0.1
2017-Sep-13 00:29N 49°20' W 123°13'0 0.0
2017-Sep-12 23:59N 49°20' W 123°13'0 0.0
2017-Sep-12 23:29N 49°20' W 123°13'0 0.0
2017-Sep-12 22:59N 49°20' W 123°13'0 0.2
2017-Sep-12 22:29N 49°20' W 123°13'0 0.0
2017-Sep-12 21:59N 49°20' W 123°13'0 0.1
2017-Sep-12 21:29N 49°20' W 123°13'0 0.0
2017-Sep-12 20:59N 49°20' W 123°13'0 0.1
2017-Sep-12 20:29N 49°20' W 123°13'0 0.0
2017-Sep-12 19:56N 49°20' W 123°13'0 0.1
2017-Sep-12 19:29N 49°20' W 123°13'0 0.0
2017-Sep-12 18:59N 49°20' W 123°13'0 0.1
2017-Sep-12 18:29N 49°20' W 123°13'0 0.2
2017-Sep-12 17:59N 49°20' W 123°13'0 0.1
2017-Sep-12 17:29N 49°20' W 123°13'0 0.0
2017-Sep-12 16:59N 49°20' W 123°13'0 0.0
2017-Sep-12 16:29N 49°20' W 123°13'0 0.0
2017-Sep-12 15:59N 49°20' W 123°13'0 0.1
2017-Sep-12 15:29N 49°20' W 123°13'0 0.0
2017-Sep-12 14:59N 49°20' W 123°13'0 0.0
2017-Sep-12 14:29N 49°20' W 123°13'0 0.0
2017-Sep-12 13:59N 49°20' W 123°13'0 0.0
2017-Sep-12 13:29N 49°20' W 123°13'0 0.0
2017-Sep-12 12:59N 49°20' W 123°13'0 0.0
2017-Sep-12 12:26N 49°20' W 123°13'0 0.0
2017-Sep-12 11:59N 49°20' W 123°13'0 0.2
2017-Sep-12 11:29N 49°20' W 123°13'0 0.1
2017-Sep-12 10:59N 49°20' W 123°13'0 0.1
2017-Sep-12 10:29N 49°20' W 123°13'0 0.1
2017-Sep-12 09:59N 49°20' W 123°13'0 0.1
2017-Sep-12 09:26N 49°20' W 123°13'0 0.0
2017-Sep-12 08:59N 49°20' W 123°13'0 0.0
2017-Sep-12 08:29N 49°20' W 123°13'0 0.1
2017-Sep-12 07:59N 49°20' W 123°13'0 0.1
2017-Sep-12 07:29N 49°20' W 123°13'0 0.2
2017-Sep-12 06:59N 49°20' W 123°13'0 0.1
2017-Sep-12 06:26N 49°20' W 123°13'0 0.0
2017-Sep-12 05:59N 49°20' W 123°13'0 0.1
2017-Sep-12 05:29N 49°20' W 123°13'0 0.0
2017-Sep-12 04:59N 49°20' W 123°13'0 0.0
2017-Sep-12 04:29N 49°20' W 123°13'0 0.1
2017-Sep-12 03:59N 49°20' W 123°13'0 0.1
2017-Sep-12 03:26N 49°20' W 123°13'0 0.1
2017-Sep-12 02:59N 49°20' W 123°13'0 0.0
2017-Sep-12 02:30N 49°20' W 123°13'1 2.6
2017-Sep-12 02:00N 49°19' W 123°11'4 7.4
2017-Sep-12 01:30N 49°18' W 123°06'1 2.8
2017-Sep-12 01:00N 49°17' W 123°04'0 0.0
2017-Sep-12 00:28N 49°17' W 123°04'0 0.0
2017-Sep-11 23:58N 49°17' W 123°04'0 0.0
2017-Sep-11 23:28N 49°17' W 123°04'0 0.0
2017-Sep-11 22:58N 49°17' W 123°04'0 0.0
2017-Sep-11 22:28N 49°17' W 123°04'0 0.0
2017-Sep-11 21:55N 49°17' W 123°04'0 0.0
2017-Sep-11 21:28N 49°17' W 123°04'0 0.0
2017-Sep-11 20:58N 49°17' W 123°04'0 0.0
2017-Sep-11 20:28N 49°17' W 123°04'0 0.0
2017-Sep-11 19:58N 49°17' W 123°04'0 0.0
2017-Sep-11 19:28N 49°17' W 123°04'0 0.0
2017-Sep-11 18:58N 49°17' W 123°04'0 0.0
2017-Sep-11 18:28N 49°17' W 123°04'0 0.0
2017-Sep-11 17:58N 49°17' W 123°04'0 0.0
2017-Sep-11 17:28N 49°17' W 123°04'0 0.0
2017-Sep-11 16:58N 49°17' W 123°04'0 0.0
2017-Sep-11 16:28N 49°17' W 123°04'0 0.0
2017-Sep-11 15:58N 49°17' W 123°04'0 0.0
2017-Sep-11 15:28N 49°17' W 123°04'0 0.0
2017-Sep-11 14:58N 49°17' W 123°04'0 0.0
2017-Sep-11 14:28N 49°17' W 123°04'0 0.0
2017-Sep-11 13:58N 49°17' W 123°04'0 0.0
2017-Sep-11 13:25N 49°17' W 123°04'0 0.0
2017-Sep-11 12:58N 49°17' W 123°04'0 0.0
2017-Sep-11 12:28N 49°17' W 123°04'0 0.0
2017-Sep-11 11:58N 49°17' W 123°04'0 0.0
2017-Sep-11 11:28N 49°17' W 123°04'0 0.0
2017-Sep-11 10:58N 49°17' W 123°04'0 0.0
2017-Sep-11 10:28N 49°17' W 123°04'0 0.0
2017-Sep-11 09:58N 49°17' W 123°04'0 0.0
2017-Sep-11 09:28N 49°17' W 123°04'0 0.0
2017-Sep-11 08:58N 49°17' W 123°04'0 0.0
2017-Sep-11 08:28N 49°17' W 123°04'0 0.0
2017-Sep-11 07:58N 49°17' W 123°04'0 0.0
2017-Sep-11 07:28N 49°17' W 123°04'0 0.0
2017-Sep-11 06:58N 49°17' W 123°04'0 0.0
2017-Sep-11 06:28N 49°17' W 123°04'0 0.0
2017-Sep-11 05:58N 49°17' W 123°04'0 0.0
2017-Sep-11 05:28N 49°17' W 123°04'0 0.0
2017-Sep-11 04:58N 49°17' W 123°04'0 0.0
2017-Sep-11 04:22N 49°17' W 123°04'0 0.0
2017-Sep-11 03:58N 49°17' W 123°04'0 0.0
2017-Sep-11 03:28N 49°17' W 123°04'0 0.0
2017-Sep-11 02:58N 49°17' W 123°04'0 0.0
2017-Sep-11 02:28N 49°17' W 123°04'0 0.0
2017-Sep-11 01:58N 49°17' W 123°04'0 0.0
2017-Sep-11 01:28N 49°17' W 123°04'0 0.0
2017-Sep-11 00:58N 49°17' W 123°04'0 0.0
2017-Sep-11 00:28N 49°17' W 123°04'0 0.0
2017-Sep-10 23:58N 49°17' W 123°04'0 0.0
2017-Sep-10 23:28N 49°17' W 123°04'0 0.0
2017-Sep-10 22:58N 49°17' W 123°04'1 1.1
2017-Sep-10 22:30N 49°18' W 123°04'1 2.0
2017-Sep-10 22:01N 49°18' W 123°06'4 8.4
2017-Sep-10 21:30N 49°19' W 123°12'1 2.2
2017-Sep-10 21:01N 49°20' W 123°13'0 0.0
2017-Sep-10 20:28N 49°20' W 123°13'0 0.1
2017-Sep-10 19:58N 49°20' W 123°13'0 0.3
2017-Sep-10 19:28N 49°20' W 123°13'0 0.0
2017-Sep-10 18:58N 49°20' W 123°13'0 0.0
2017-Sep-10 18:28N 49°20' W 123°13'0 0.0
2017-Sep-10 17:58N 49°20' W 123°13'0 0.0
2017-Sep-10 17:28N 49°20' W 123°13'0 0.0
2017-Sep-10 16:58N 49°20' W 123°13'0 0.0
2017-Sep-10 16:28N 49°20' W 123°13'0 0.1
2017-Sep-10 15:58N 49°20' W 123°13'0 0.1
2017-Sep-10 15:28N 49°20' W 123°13'0 0.2
2017-Sep-10 14:58N 49°20' W 123°13'0 0.0
2017-Sep-10 13:58N 49°20' W 123°13'0 0.0
2017-Sep-10 13:28N 49°20' W 123°13'0 0.1
2017-Sep-10 12:58N 49°20' W 123°13'0 0.1
2017-Sep-10 12:28N 49°20' W 123°13'0 0.1
2017-Sep-10 11:58N 49°20' W 123°13'0 0.0
2017-Sep-10 11:28N 49°20' W 123°13'0 0.0
2017-Sep-10 10:58N 49°20' W 123°13'0 0.0
2017-Sep-10 10:28N 49°20' W 123°13'0 0.0
2017-Sep-10 09:58N 49°20' W 123°13'0 0.0
2017-Sep-10 09:28N 49°20' W 123°13'0 0.0
2017-Sep-10 08:58N 49°20' W 123°13'0 0.1
2017-Sep-10 08:28N 49°20' W 123°13'0 0.1
2017-Sep-10 07:58N 49°20' W 123°13'0 0.2
2017-Sep-10 07:28N 49°20' W 123°13'0 0.2
2017-Sep-10 06:58N 49°20' W 123°13'0 0.1
2017-Sep-10 06:28N 49°20' W 123°13'0 0.2
2017-Sep-10 05:58N 49°20' W 123°13'0 0.2
2017-Sep-10 05:28N 49°20' W 123°13'0 0.1
2017-Sep-10 04:58N 49°20' W 123°13'0 0.0
2017-Sep-10 04:28N 49°20' W 123°13'0 0.1
2017-Sep-10 03:58N 49°20' W 123°13'0 0.2
2017-Sep-10 03:28N 49°20' W 123°13'0 0.2
2017-Sep-10 02:58N 49°20' W 123°13'0 0.0
2017-Sep-10 02:28N 49°20' W 123°13'0 0.2
2017-Sep-10 01:58N 49°20' W 123°13'0 0.0
2017-Sep-10 01:28N 49°20' W 123°13'0 0.1
2017-Sep-10 00:58N 49°20' W 123°13'0 0.2
2017-Sep-10 00:28N 49°20' W 123°13'0 0.0
2017-Sep-09 23:58N 49°20' W 123°13'0 0.0
2017-Sep-09 23:28N 49°20' W 123°13'0 0.1
2017-Sep-09 22:58N 49°20' W 123°13'0 0.0
2017-Sep-09 22:28N 49°20' W 123°13'0 0.0
2017-Sep-09 21:58N 49°20' W 123°13'0 0.0
2017-Sep-09 21:28N 49°20' W 123°13'0 0.0
2017-Sep-09 20:58N 49°20' W 123°13'0 0.0
2017-Sep-09 20:28N 49°20' W 123°13'0 0.0
2017-Sep-09 19:58N 49°20' W 123°13'0 0.2
2017-Sep-09 19:30N 49°20' W 123°13'1 2.5
2017-Sep-09 19:00N 49°19' W 123°15'4 8.9
2017-Sep-09 18:30N 49°16' W 123°19'713.6
2017-Sep-09 18:00N 49°09' W 123°20'612.6
2017-Sep-09 17:30N 49°03' W 123°19'612.9
2017-Sep-09 17:00N 48°58' W 123°12'713.2
2017-Sep-09 16:30N 48°54' W 123°04'612.8
2017-Sep-09 16:00N 48°48' W 123°00'612.2
2017-Sep-09 15:30N 48°44' W 123°07'612.0
2017-Sep-09 15:00N 48°40' W 123°15'612.1
2017-Sep-09 14:30N 48°34' W 123°13'611.8
2017-Sep-09 14:00N 48°29' W 123°11'611.6
2017-Sep-09 13:30N 48°23' W 123°14'612.6
2017-Sep-09 13:00N 48°21' W 123°23'4 7.2
2017-Sep-09 12:30N 48°18' W 123°24'3 6.9
2017-Sep-09 12:00N 48°15' W 123°27'3 6.9
2017-Sep-09 11:30N 48°13' W 123°31'4 7.8
2017-Sep-09 11:00N 48°13' W 123°37'4 7.4
2017-Sep-09 10:30N 48°13' W 123°42'5 9.7
2017-Sep-09 10:00N 48°13' W 123°50'4 8.0
2017-Sep-09 09:30N 48°13' W 123°56'4 8.4
2017-Sep-09 09:00N 48°15' W 124°01'5 9.8
2017-Sep-09 08:30N 48°17' W 124°08'5 9.2
2017-Sep-09 08:00N 48°19' W 124°14'5 9.4
2017-Sep-09 07:30N 48°21' W 124°21'5 9.1
2017-Sep-09 07:00N 48°23' W 124°27'5 8.9
2017-Sep-09 06:29N 48°25' W 124°33'4 8.5
2017-Sep-09 06:00N 48°27' W 124°39'4 8.3
2017-Sep-09 05:30N 48°29' W 124°44'4 6.2
2017-Sep-09 04:57N 48°29' W 124°50'4 9.5
2017-Sep-09 04:30N 48°29' W 124°56'612.2
2017-Sep-09 04:00N 48°29' W 125°05'713.1
2017-Sep-09 03:30N 48°29' W 125°15'713.1
2017-Sep-09 03:00N 48°29' W 125°25'713.0
2017-Sep-09 02:30N 48°29' W 125°35'612.6
2017-Sep-09 02:00N 48°28' W 125°44'611.9
2017-Sep-09 01:30N 48°28' W 125°53'612.7
2017-Sep-09 01:00N 48°28' W 126°03'612.9
2017-Sep-09 00:30N 48°28' W 126°12'712.9
2017-Sep-08 23:59N 48°28' W 126°23'  
Track history (hours):
 
Tides and Currents Weather Stations Pressure Air Temp Water Temp Dewpoint Dewpoint Depression Visibility Wind Speed Wind Dir Waves Ship Positions

Bright Ocean

Last reported at 2017-Sep-16 03:04 UTC. Time now 2017-Sep-25 06:21 UTC.
Position N 48°31' W 126°43'.
Warning: this ship's position is 9 days out of date.

Length 178 m; draft 9.7 m.

Type: Cargo ship. MMSI: 373816000.

Date/timePositionNaut miles runAvg speedWind from/ knotsBaromVisibWave heightAir tempDewpointWater temp
2017-Sep-16 03:04N 48°31' W 126°43'112.7
2017-Sep-16 03:00N 48°32' W 126°42'612.1
2017-Sep-16 02:28N 48°31' W 126°32'612.2
2017-Sep-16 02:00N 48°31' W 126°23'612.6
2017-Sep-16 01:30N 48°31' W 126°14'612.3
2017-Sep-16 01:00N 48°31' W 126°04'612.4
2017-Sep-16 00:30N 48°31' W 125°55'612.0
2017-Sep-16 00:00N 48°31' W 125°46'612.4
2017-Sep-15 23:30N 48°31' W 125°37'612.2
2017-Sep-15 23:00N 48°31' W 125°27'612.1
2017-Sep-15 22:30N 48°31' W 125°18'612.0
2017-Sep-15 22:00N 48°31' W 125°09'612.6
2017-Sep-15 21:30N 48°31' W 124°60'613.1
2017-Sep-15 21:00N 48°31' W 124°50'612.5
2017-Sep-15 20:30N 48°30' W 124°41'612.6
2017-Sep-15 20:00N 48°27' W 124°32'612.2
2017-Sep-15 19:30N 48°25' W 124°23'612.2
2017-Sep-15 19:00N 48°23' W 124°15'611.8
2017-Sep-15 18:30N 48°20' W 124°06'611.8
2017-Sep-15 18:00N 48°18' W 123°58'611.6
2017-Sep-15 17:30N 48°17' W 123°50'611.9
2017-Sep-15 17:00N 48°16' W 123°41'611.4
2017-Sep-15 16:30N 48°16' W 123°32'5 9.7
2017-Sep-15 16:00N 48°19' W 123°27'5 9.9
2017-Sep-15 15:30N 48°23' W 123°22'510.3
2017-Sep-15 15:00N 48°24' W 123°15'510.4
2017-Sep-15 14:30N 48°29' W 123°12'713.3
2017-Sep-15 14:00N 48°35' W 123°14'713.3
2017-Sep-15 13:30N 48°42' W 123°15'714.8
2017-Sep-15 13:00N 48°45' W 123°05'510.1
2017-Sep-15 12:30N 48°50' W 123°03'815.1
2017-Sep-15 12:01N 48°55' W 123°11'815.0
2017-Sep-15 11:30N 49°00' W 123°19'713.6
2017-Sep-15 11:00N 49°07' W 123°24'713.7
2017-Sep-15 10:30N 49°13' W 123°23'611.8
2017-Sep-15 10:00N 49°18' W 123°19'612.5
2017-Sep-15 09:30N 49°19' W 123°09'3 6.8
2017-Sep-15 09:00N 49°18' W 123°04'1 3.0
2017-Sep-15 08:30N 49°18' W 123°02'0 0.0
2017-Sep-15 07:58N 49°18' W 123°02'0 0.0
2017-Sep-15 07:28N 49°18' W 123°02'0 0.0
2017-Sep-15 06:58N 49°18' W 123°02'0 0.0
2017-Sep-15 06:28N 49°18' W 123°02'0 0.0
2017-Sep-15 05:58N 49°18' W 123°02'0 0.0
2017-Sep-15 05:28N 49°18' W 123°02'0 0.0
2017-Sep-15 04:58N 49°18' W 123°02'0 0.0
2017-Sep-15 04:28N 49°18' W 123°02'0 0.0
2017-Sep-15 03:55N 49°18' W 123°02'0 0.0
2017-Sep-15 03:28N 49°18' W 123°02'0 0.0
2017-Sep-15 02:58N 49°18' W 123°02'0 0.0
2017-Sep-15 02:28N 49°18' W 123°02'0 0.0
2017-Sep-15 01:58N 49°18' W 123°02'0 0.0
2017-Sep-15 01:28N 49°18' W 123°02'0 0.0
2017-Sep-15 00:55N 49°18' W 123°02'0 0.0
2017-Sep-15 00:28N 49°18' W 123°02'0 0.0
2017-Sep-14 23:58N 49°18' W 123°02'0 0.0
2017-Sep-14 23:28N 49°18' W 123°02'0 0.0
2017-Sep-14 22:58N 49°18' W 123°02'0 0.0
2017-Sep-14 22:28N 49°18' W 123°02'0 0.0
2017-Sep-14 21:58N 49°18' W 123°02'0 0.0
2017-Sep-14 21:28N 49°18' W 123°02'0 0.0
2017-Sep-14 20:58N 49°18' W 123°02'0 0.0
2017-Sep-14 20:25N 49°18' W 123°02'0 0.0
2017-Sep-14 19:58N 49°18' W 123°02'0 0.0
2017-Sep-14 19:28N 49°18' W 123°02'0 0.0
2017-Sep-14 18:58N 49°18' W 123°02'0 0.0
2017-Sep-14 18:28N 49°18' W 123°02'0 0.0
2017-Sep-14 17:58N 49°18' W 123°02'0 0.0
2017-Sep-14 17:22N 49°18' W 123°02'0 0.0
2017-Sep-14 16:58N 49°18' W 123°02'0 0.0
2017-Sep-14 16:28N 49°18' W 123°02'0 0.0
2017-Sep-14 15:58N 49°18' W 123°02'0 0.0
2017-Sep-14 15:28N 49°18' W 123°02'0 0.0
2017-Sep-14 14:58N 49°18' W 123°02'0 0.0
2017-Sep-14 14:28N 49°18' W 123°02'0 0.0
2017-Sep-14 13:58N 49°18' W 123°02'0 0.7
2017-Sep-14 13:31N 49°18' W 123°02'2 4.3
2017-Sep-14 13:00N 49°18' W 123°05'4 8.4
2017-Sep-14 12:30N 49°19' W 123°12'1 2.4
2017-Sep-14 12:01N 49°20' W 123°13'0 0.0
2017-Sep-14 11:29N 49°20' W 123°13'0 0.0
2017-Sep-14 10:59N 49°20' W 123°13'0 0.0
2017-Sep-14 10:29N 49°20' W 123°13'0 0.1
2017-Sep-14 09:59N 49°20' W 123°13'0 0.1
2017-Sep-14 09:29N 49°20' W 123°13'0 0.1
2017-Sep-14 08:59N 49°20' W 123°13'0 0.0
2017-Sep-14 08:29N 49°20' W 123°13'0 0.1
2017-Sep-14 07:59N 49°20' W 123°13'0 0.0
2017-Sep-14 07:29N 49°20' W 123°13'0 0.1
2017-Sep-14 06:59N 49°20' W 123°13'0 0.0
2017-Sep-14 06:29N 49°20' W 123°13'0 0.0
2017-Sep-14 05:59N 49°20' W 123°13'0 0.0
2017-Sep-14 05:29N 49°20' W 123°13'0 0.0
2017-Sep-14 04:59N 49°20' W 123°13'0 0.0
2017-Sep-14 04:29N 49°20' W 123°13'0 0.1
2017-Sep-14 03:59N 49°20' W 123°13'0 0.1
2017-Sep-14 03:29N 49°20' W 123°13'0 0.1
2017-Sep-14 02:59N 49°20' W 123°13'0 0.1
2017-Sep-14 02:29N 49°20' W 123°13'0 0.2
2017-Sep-14 01:59N 49°20' W 123°13'0 0.1
2017-Sep-14 01:29N 49°20' W 123°13'0 0.1
2017-Sep-14 00:59N 49°20' W 123°13'0 0.0
2017-Sep-14 00:29N 49°20' W 123°13'0 0.1
2017-Sep-13 23:59N 49°20' W 123°13'0 0.1
2017-Sep-13 23:29N 49°20' W 123°13'0 0.0
2017-Sep-13 22:59N 49°20' W 123°13'0 0.1
2017-Sep-13 22:29N 49°20' W 123°13'0 0.1
2017-Sep-13 21:59N 49°20' W 123°13'0 0.0
2017-Sep-13 21:29N 49°20' W 123°13'0 0.0
2017-Sep-13 20:59N 49°20' W 123°13'0 0.0
2017-Sep-13 20:29N 49°20' W 123°13'0 0.0
2017-Sep-13 19:59N 49°20' W 123°13'0 0.1
2017-Sep-13 19:29N 49°20' W 123°13'0 0.2
2017-Sep-13 18:59N 49°20' W 123°13'0 0.2
2017-Sep-13 18:29N 49°20' W 123°13'0 0.0
2017-Sep-13 17:59N 49°20' W 123°13'0 0.1
2017-Sep-13 17:26N 49°20' W 123°13'0 0.0
2017-Sep-13 16:59N 49°20' W 123°13'0 0.0
2017-Sep-13 16:29N 49°20' W 123°13'0 0.0
2017-Sep-13 15:59N 49°20' W 123°13'0 0.0
2017-Sep-13 15:29N 49°20' W 123°13'0 0.0
2017-Sep-13 14:59N 49°20' W 123°13'0 0.0
2017-Sep-13 14:29N 49°20' W 123°13'0 0.0
2017-Sep-13 13:59N 49°20' W 123°13'0 0.0
2017-Sep-13 13:29N 49°20' W 123°13'0 0.0
2017-Sep-13 12:59N 49°20' W 123°13'0 0.0
2017-Sep-13 12:29N 49°20' W 123°13'0 0.0
2017-Sep-13 11:59N 49°20' W 123°13'0 0.1
2017-Sep-13 11:29N 49°20' W 123°13'0 0.0
2017-Sep-13 10:59N 49°20' W 123°13'0 0.0
2017-Sep-13 10:29N 49°20' W 123°13'0 0.0
2017-Sep-13 09:59N 49°20' W 123°13'0 0.0
2017-Sep-13 09:29N 49°20' W 123°13'0 0.0
2017-Sep-13 08:59N 49°20' W 123°13'0 0.2
2017-Sep-13 08:29N 49°20' W 123°13'0 0.2
2017-Sep-13 07:59N 49°20' W 123°13'0 0.1
2017-Sep-13 07:29N 49°20' W 123°13'0 0.2
2017-Sep-13 06:59N 49°20' W 123°13'0 0.1
2017-Sep-13 06:29N 49°20' W 123°13'0 0.0
2017-Sep-13 05:59N 49°20' W 123°13'0 0.1
2017-Sep-13 05:29N 49°20' W 123°13'0 0.1
2017-Sep-13 04:59N 49°20' W 123°13'0 0.0
2017-Sep-13 04:29N 49°20' W 123°13'0 0.0
2017-Sep-13 03:59N 49°20' W 123°13'0 0.1
2017-Sep-13 03:29N 49°20' W 123°13'0 0.0
2017-Sep-13 02:59N 49°20' W 123°13'0 0.0
2017-Sep-13 02:29N 49°20' W 123°13'0 0.1
2017-Sep-13 01:59N 49°20' W 123°13'0 0.0
2017-Sep-13 01:29N 49°20' W 123°13'0 0.2
2017-Sep-13 00:59N 49°20' W 123°13'0 0.1
2017-Sep-13 00:29N 49°20' W 123°13'0 0.0
2017-Sep-12 23:59N 49°20' W 123°13'0 0.0
2017-Sep-12 23:29N 49°20' W 123°13'0 0.0
2017-Sep-12 22:59N 49°20' W 123°13'0 0.2
2017-Sep-12 22:29N 49°20' W 123°13'0 0.0
2017-Sep-12 21:59N 49°20' W 123°13'0 0.1
2017-Sep-12 21:29N 49°20' W 123°13'0 0.0
2017-Sep-12 20:59N 49°20' W 123°13'0 0.1
2017-Sep-12 20:29N 49°20' W 123°13'0 0.0
2017-Sep-12 19:56N 49°20' W 123°13'0 0.1
2017-Sep-12 19:29N 49°20' W 123°13'0 0.0
2017-Sep-12 18:59N 49°20' W 123°13'0 0.1
2017-Sep-12 18:29N 49°20' W 123°13'0 0.2
2017-Sep-12 17:59N 49°20' W 123°13'0 0.1
2017-Sep-12 17:29N 49°20' W 123°13'0 0.0
2017-Sep-12 16:59N 49°20' W 123°13'0 0.0
2017-Sep-12 16:29N 49°20' W 123°13'0 0.0
2017-Sep-12 15:59N 49°20' W 123°13'0 0.1
2017-Sep-12 15:29N 49°20' W 123°13'0 0.0
2017-Sep-12 14:59N 49°20' W 123°13'0 0.0
2017-Sep-12 14:29N 49°20' W 123°13'0 0.0
2017-Sep-12 13:59N 49°20' W 123°13'0 0.0
2017-Sep-12 13:29N 49°20' W 123°13'0 0.0
2017-Sep-12 12:59N 49°20' W 123°13'0 0.0
2017-Sep-12 12:26N 49°20' W 123°13'0 0.0
2017-Sep-12 11:59N 49°20' W 123°13'0 0.2
2017-Sep-12 11:29N 49°20' W 123°13'0 0.1
2017-Sep-12 10:59N 49°20' W 123°13'0 0.1
2017-Sep-12 10:29N 49°20' W 123°13'0 0.1
2017-Sep-12 09:59N 49°20' W 123°13'0 0.1
2017-Sep-12 09:26N 49°20' W 123°13'0 0.0
2017-Sep-12 08:59N 49°20' W 123°13'0 0.0
2017-Sep-12 08:29N 49°20' W 123°13'0 0.1
2017-Sep-12 07:59N 49°20' W 123°13'0 0.1
2017-Sep-12 07:29N 49°20' W 123°13'0 0.2
2017-Sep-12 06:59N 49°20' W 123°13'0 0.1
2017-Sep-12 06:26N 49°20' W 123°13'0 0.0
2017-Sep-12 05:59N 49°20' W 123°13'0 0.1
2017-Sep-12 05:29N 49°20' W 123°13'0 0.0
2017-Sep-12 04:59N 49°20' W 123°13'0 0.0
2017-Sep-12 04:29N 49°20' W 123°13'0 0.1
2017-Sep-12 03:59N 49°20' W 123°13'0 0.1
2017-Sep-12 03:26N 49°20' W 123°13'0 0.1
2017-Sep-12 02:59N 49°20' W 123°13'0 0.0
2017-Sep-12 02:30N 49°20' W 123°13'1 2.6
2017-Sep-12 02:00N 49°19' W 123°11'4 7.4
2017-Sep-12 01:30N 49°18' W 123°06'1 2.8
2017-Sep-12 01:00N 49°17' W 123°04'0 0.0
2017-Sep-12 00:28N 49°17' W 123°04'0 0.0
2017-Sep-11 23:58N 49°17' W 123°04'0 0.0
2017-Sep-11 23:28N 49°17' W 123°04'0 0.0
2017-Sep-11 22:58N 49°17' W 123°04'0 0.0
2017-Sep-11 22:28N 49°17' W 123°04'0 0.0
2017-Sep-11 21:55N 49°17' W 123°04'0 0.0
2017-Sep-11 21:28N 49°17' W 123°04'0 0.0
2017-Sep-11 20:58N 49°17' W 123°04'0 0.0
2017-Sep-11 20:28N 49°17' W 123°04'0 0.0
2017-Sep-11 19:58N 49°17' W 123°04'0 0.0
2017-Sep-11 19:28N 49°17' W 123°04'0 0.0
2017-Sep-11 18:58N 49°17' W 123°04'0 0.0
2017-Sep-11 18:28N 49°17' W 123°04'0 0.0
2017-Sep-11 17:58N 49°17' W 123°04'0 0.0
2017-Sep-11 17:28N 49°17' W 123°04'0 0.0
2017-Sep-11 16:58N 49°17' W 123°04'0 0.0
2017-Sep-11 16:28N 49°17' W 123°04'0 0.0
2017-Sep-11 15:58N 49°17' W 123°04'0 0.0
2017-Sep-11 15:28N 49°17' W 123°04'0 0.0
2017-Sep-11 14:58N 49°17' W 123°04'0 0.0
2017-Sep-11 14:28N 49°17' W 123°04'0 0.0
2017-Sep-11 13:58N 49°17' W 123°04'0 0.0
2017-Sep-11 13:25N 49°17' W 123°04'0 0.0
2017-Sep-11 12:58N 49°17' W 123°04'0 0.0
2017-Sep-11 12:28N 49°17' W 123°04'0 0.0
2017-Sep-11 11:58N 49°17' W 123°04'0 0.0
2017-Sep-11 11:28N 49°17' W 123°04'0 0.0
2017-Sep-11 10:58N 49°17' W 123°04'0 0.0
2017-Sep-11 10:28N 49°17' W 123°04'0 0.0
2017-Sep-11 09:58N 49°17' W 123°04'0 0.0
2017-Sep-11 09:28N 49°17' W 123°04'0 0.0
2017-Sep-11 08:58N 49°17' W 123°04'0 0.0
2017-Sep-11 08:28N 49°17' W 123°04'0 0.0
2017-Sep-11 07:58N 49°17' W 123°04'0 0.0
2017-Sep-11 07:28N 49°17' W 123°04'0 0.0
2017-Sep-11 06:58N 49°17' W 123°04'0 0.0
2017-Sep-11 06:28N 49°17' W 123°04'0 0.0
2017-Sep-11 05:58N 49°17' W 123°04'0 0.0
2017-Sep-11 05:28N 49°17' W 123°04'0 0.0
2017-Sep-11 04:58N 49°17' W 123°04'0 0.0
2017-Sep-11 04:22N 49°17' W 123°04'0 0.0
2017-Sep-11 03:58N 49°17' W 123°04'0 0.0
2017-Sep-11 03:28N 49°17' W 123°04'0 0.0
2017-Sep-11 02:58N 49°17' W 123°04'0 0.0
2017-Sep-11 02:28N 49°17' W 123°04'0 0.0
2017-Sep-11 01:58N 49°17' W 123°04'0 0.0
2017-Sep-11 01:28N 49°17' W 123°04'0 0.0
2017-Sep-11 00:58N 49°17' W 123°04'0 0.0
2017-Sep-11 00:28N 49°17' W 123°04'0 0.0
2017-Sep-10 23:58N 49°17' W 123°04'0 0.0
2017-Sep-10 23:28N 49°17' W 123°04'0 0.0
2017-Sep-10 22:58N 49°17' W 123°04'1 1.1
2017-Sep-10 22:30N 49°18' W 123°04'1 2.0
2017-Sep-10 22:01N 49°18' W 123°06'4 8.4
2017-Sep-10 21:30N 49°19' W 123°12'1 2.2
2017-Sep-10 21:01N 49°20' W 123°13'0 0.0
2017-Sep-10 20:28N 49°20' W 123°13'0 0.1
2017-Sep-10 19:58N 49°20' W 123°13'0 0.3
2017-Sep-10 19:28N 49°20' W 123°13'0 0.0
2017-Sep-10 18:58N 49°20' W 123°13'0 0.0
2017-Sep-10 18:28N 49°20' W 123°13'0 0.0
2017-Sep-10 17:58N 49°20' W 123°13'0 0.0
2017-Sep-10 17:28N 49°20' W 123°13'0 0.0
2017-Sep-10 16:58N 49°20' W 123°13'0 0.0
2017-Sep-10 16:28N 49°20' W 123°13'0 0.1
2017-Sep-10 15:58N 49°20' W 123°13'0 0.1
2017-Sep-10 15:28N 49°20' W 123°13'0 0.2
2017-Sep-10 14:58N 49°20' W 123°13'0 0.0
2017-Sep-10 13:58N 49°20' W 123°13'0 0.0
2017-Sep-10 13:28N 49°20' W 123°13'0 0.1
2017-Sep-10 12:58N 49°20' W 123°13'0 0.1
2017-Sep-10 12:28N 49°20' W 123°13'0 0.1
2017-Sep-10 11:58N 49°20' W 123°13'0 0.0
2017-Sep-10 11:28N 49°20' W 123°13'0 0.0
2017-Sep-10 10:58N 49°20' W 123°13'0 0.0
2017-Sep-10 10:28N 49°20' W 123°13'0 0.0
2017-Sep-10 09:58N 49°20' W 123°13'0 0.0
2017-Sep-10 09:28N 49°20' W 123°13'0 0.0
2017-Sep-10 08:58N 49°20' W 123°13'0 0.1
2017-Sep-10 08:28N 49°20' W 123°13'0 0.1
2017-Sep-10 07:58N 49°20' W 123°13'0 0.2
2017-Sep-10 07:28N 49°20' W 123°13'0 0.2
2017-Sep-10 06:58N 49°20' W 123°13'0 0.1
2017-Sep-10 06:28N 49°20' W 123°13'0 0.2
2017-Sep-10 05:58N 49°20' W 123°13'0 0.2
2017-Sep-10 05:28N 49°20' W 123°13'0 0.1
2017-Sep-10 04:58N 49°20' W 123°13'0 0.0
2017-Sep-10 04:28N 49°20' W 123°13'0 0.1
2017-Sep-10 03:58N 49°20' W 123°13'0 0.2
2017-Sep-10 03:28N 49°20' W 123°13'0 0.2
2017-Sep-10 02:58N 49°20' W 123°13'0 0.0
2017-Sep-10 02:28N 49°20' W 123°13'0 0.2
2017-Sep-10 01:58N 49°20' W 123°13'0 0.0
2017-Sep-10 01:28N 49°20' W 123°13'0 0.1
2017-Sep-10 00:58N 49°20' W 123°13'0 0.2
2017-Sep-10 00:28N 49°20' W 123°13'0 0.0
2017-Sep-09 23:58N 49°20' W 123°13'0 0.0
2017-Sep-09 23:28N 49°20' W 123°13'0 0.1
2017-Sep-09 22:58N 49°20' W 123°13'0 0.0
2017-Sep-09 22:28N 49°20' W 123°13'0 0.0
2017-Sep-09 21:58N 49°20' W 123°13'0 0.0
2017-Sep-09 21:28N 49°20' W 123°13'0 0.0
2017-Sep-09 20:58N 49°20' W 123°13'0 0.0
2017-Sep-09 20:28N 49°20' W 123°13'0 0.0
2017-Sep-09 19:58N 49°20' W 123°13'0 0.2
2017-Sep-09 19:30N 49°20' W 123°13'1 2.5
2017-Sep-09 19:00N 49°19' W 123°15'4 8.9
2017-Sep-09 18:30N 49°16' W 123°19'713.6
2017-Sep-09 18:00N 49°09' W 123°20'612.6
2017-Sep-09 17:30N 49°03' W 123°19'612.9
2017-Sep-09 17:00N 48°58' W 123°12'713.2
2017-Sep-09 16:30N 48°54' W 123°04'612.8
2017-Sep-09 16:00N 48°48' W 123°00'612.2
2017-Sep-09 15:30N 48°44' W 123°07'612.0
2017-Sep-09 15:00N 48°40' W 123°15'612.1
2017-Sep-09 14:30N 48°34' W 123°13'611.8
2017-Sep-09 14:00N 48°29' W 123°11'611.6
2017-Sep-09 13:30N 48°23' W 123°14'612.6
2017-Sep-09 13:00N 48°21' W 123°23'4 7.2
2017-Sep-09 12:30N 48°18' W 123°24'3 6.9
2017-Sep-09 12:00N 48°15' W 123°27'3 6.9
2017-Sep-09 11:30N 48°13' W 123°31'4 7.8
2017-Sep-09 11:00N 48°13' W 123°37'4 7.4
2017-Sep-09 10:30N 48°13' W 123°42'5 9.7
2017-Sep-09 10:00N 48°13' W 123°50'4 8.0
2017-Sep-09 09:30N 48°13' W 123°56'4 8.4
2017-Sep-09 09:00N 48°15' W 124°01'5 9.8
2017-Sep-09 08:30N 48°17' W 124°08'5 9.2
2017-Sep-09 08:00N 48°19' W 124°14'5 9.4
2017-Sep-09 07:30N 48°21' W 124°21'5 9.1
2017-Sep-09 07:00N 48°23' W 124°27'5 8.9
2017-Sep-09 06:29N 48°25' W 124°33'4 8.5
2017-Sep-09 06:00N 48°27' W 124°39'4 8.3
2017-Sep-09 05:30N 48°29' W 124°44'4 6.2
2017-Sep-09 04:57N 48°29' W 124°50'4 9.5
2017-Sep-09 04:30N 48°29' W 124°56'612.2
2017-Sep-09 04:00N 48°29' W 125°05'713.1
2017-Sep-09 03:30N 48°29' W 125°15'713.1
2017-Sep-09 03:00N 48°29' W 125°25'713.0
2017-Sep-09 02:30N 48°29' W 125°35'612.6
2017-Sep-09 02:00N 48°28' W 125°44'611.9
2017-Sep-09 01:30N 48°28' W 125°53'612.7
2017-Sep-09 01:00N 48°28' W 126°03'612.9
2017-Sep-09 00:30N 48°28' W 126°12'712.9
2017-Sep-08 23:59N 48°28' W 126°23'  

Dump ship's entire track history